SondeTracker

Meteorological Radiosondes Database

Operations

Sounding was ended - last measurement: 2022-12-06 01:08:00z

MAP
About Radiosonde

Number: U3554711

Launch Site:

Type: RS41

AUX: NO

Frequency: 403.000 MHz

Max Speed: 232 km/h at 10722 m

Average Speed: 142.18 km/h

Max Altitude: 20618 m

Average Ascent Speed: 4.48 m/s

Average Descent Speed: 7.47 m/s

Status: UNKNOWN

Status Changes
Launch Site Type AUX Frequency Status Finder Landing Point Description Changes made by
APRS Statistics

Received Frames: 87

First Frame [UTC]: 2022-12-06 00:13:39z

Last Frame [UTC]: 2022-12-06 01:08:00z

Receivers: KF0FCV

Flight Time: 00:54:21 h

Distance From First Measurement: 122.31 km

Nearest City: The Pinery [CO] (US) [43.08 km]

Nearest Hunter: KB3ZOW [52.88 km]

Ground Altitude: 1790 m

Distance from QTH: 0.00 km

APRS Data
Receiver Number Date/Time [UTC] φ λ Course [°] Speed [km/h] Altitude [m] Description
KF0FCVU35547112022-12-06 01:08:0039.4711-104.25879855080Clb=-6.5m/s t=-17.3C h=63.4% p=534.2hPa 403.000 MHz Type=RS41-SGP ser=U3554711 Radiosonde
KF0FCVU35547112022-12-06 01:07:2939.4693-104.27181985389Clb=-7.2m/s t=-19.3C h=47.8% p=512.8hPa 403.000 MHz Type=RS41-SGP ser=U3554711 Radiosonde
KF0FCVU35547112022-12-06 01:06:5839.4688-104.276811005496Clb=-6.7m/s t=-20.3C h=64.2% p=505.3hPa 403.000 MHz Type=RS41-SGP ser=U3554711 Radiosonde
KF0FCVU35547112022-12-06 01:06:4339.467-104.289781115759Clb=-7.2m/s t=-21.5C h=67.4% p=487.6hPa 403.000 MHz Type=RS41-SGP ser=U3554711 Radiosonde
KF0FCVU35547112022-12-06 01:06:4139.4656-104.298781075941Clb=-6.3m/s t=-21.3C h=59.9% p=475.9hPa 403.000 MHz Type=RS41-SGP ser=U3554711 Radiosonde
KF0FCVU35547112022-12-06 01:06:3739.4641-104.308791096147Clb=-8.1m/s t=-22.3C h=56.7% p=462.9hPa 403.000 MHz Type=RS41-SGP ser=U3554711 Radiosonde
KF0FCVU35547112022-12-06 01:06:1639.4624-104.319791116379Clb=-10.0m/s t=-24.0C h=55.9% p=448.7hPa 403.000 MHz Type=RS41-SGP ser=U3554711 Radiosonde
KF0FCVU35547112022-12-06 01:06:0039.4607-104.33791156594Clb=-8.7m/s t=-25.6C h=54.4% p=435.5hPa 403.000 MHz Type=RS41-SGP ser=U3554711 Radiosonde
KF0FCVU35547112022-12-06 01:05:5439.4587-104.342761206803Clb=-4.8m/s t=-27.1C h=56.9% p=423.0hPa 403.000 MHz Type=RS41-SGP ser=U3554711 Radiosonde
KF0FCVU35547112022-12-06 01:05:4939.4562-104.355751247051Clb=-5.2m/s t=-28.9C h=58.9% p=408.9hPa 403.000 MHz Type=RS41-SGP ser=U3554711 Radiosonde
KF0FCVU35547112022-12-06 01:05:4239.4542-104.366771287235Clb=-6.0m/s t=-30.2C h=57.9% p=398.5hPa 403.000 MHz Type=RS41-SGP ser=U3554711 Radiosonde
KF0FCVU35547112022-12-06 01:05:1439.452-104.379771247447Clb=-5.7m/s t=-32.0C h=60.1% p=386.7hPa 403.000 MHz Type=RS41-SGP ser=U3554711 Radiosonde
KF0FCVU35547112022-12-06 01:05:0039.4496-104.391741287651Clb=-9.8m/s t=-33.3C h=54.1% p=375.7hPa 403.000 MHz Type=RS41-SGP ser=U3554711 Radiosonde
KF0FCVU35547112022-12-06 01:04:5839.4467-104.404751447885Clb=-6.6m/s t=-34.4C h=55.6% p=363.7hPa 403.000 MHz Type=RS41-SGP ser=U3554711 Radiosonde
KF0FCVU35547112022-12-06 01:04:3739.4432-104.419711508136Clb=-7.0m/s t=-36.1C h=59.2% p=350.8hPa 403.000 MHz Type=RS41-SGP ser=U3554711 Radiosonde
KF0FCVU35547112022-12-06 01:03:5739.4395-104.433721568355Clb=-6.9m/s t=-38.0C h=63.1% p=339.8hPa 403.000 MHz Type=RS41-SGP ser=U3554711 Radiosonde
KF0FCVU35547112022-12-06 01:03:1439.4361-104.448731638572Clb=-9.2m/s t=-39.8C h=66.4% p=329.3hPa 403.000 MHz Type=RS41-SGP ser=U3554711 Radiosonde
KF0FCVU35547112022-12-06 01:02:3339.4321-104.464701748803Clb=-7.6m/s t=-41.0C h=68.9% p=318.2hPa 403.000 MHz Type=RS41-SGP ser=U3554711 Radiosonde
KF0FCVU35547112022-12-06 01:01:5239.4272-104.482691879032Clb=-6.2m/s t=-42.4C h=67.5% p=307.7hPa 403.000 MHz Type=RS41-SGP ser=U3554711 Radiosonde
KF0FCVU35547112022-12-06 01:01:0639.4221-104.501711949249Clb=-5.2m/s t=-44.0C h=73.7% p=298.0hPa 403.000 MHz Type=RS41-SGP ser=U3554711 Radiosonde
KF0FCVU35547112022-12-06 01:00:2239.4178-104.518742009466Clb=-6.7m/s t=-45.8C h=67.4% p=288.6hPa 403.000 MHz Type=RS41-SGP ser=U3554711 Radiosonde
KF0FCVU35547112022-12-06 00:59:3939.414-104.538772079677Clb=-5.1m/s t=-47.4C h=68.1% p=279.6hPa 403.000 MHz Type=RS41-SGP ser=U3554711 Radiosonde
KF0FCVU35547112022-12-06 00:58:5639.4102-104.558752119886Clb=-8.6m/s t=-48.2C h=52.1% p=270.9hPa 403.000 MHz Type=RS41-SGP ser=U3554711 Radiosonde
KF0FCVU35547112022-12-06 00:58:1339.4058-104.5797321710107Clb=-7.7m/s t=-49.6C h=63.9% p=262.1hPa 403.000 MHz Type=RS41-SGP ser=U3554711 Radiosonde
KF0FCVU35547112022-12-06 00:57:2739.4011-104.67422610300Clb=-5.8m/s t=-51.0C h=68.1% p=254.5hPa 403.000 MHz Type=RS41-SGP ser=U3554711 Radiosonde
KF0FCVU35547112022-12-06 00:56:4139.3966-104.6237622810529Clb=-6.8m/s t=-52.5C h=57.1% p=245.7hPa 403.000 MHz Type=RS41-SGP ser=U3554711 Radiosonde
KF0FCVU35547112022-12-06 00:55:5739.3926-104.6457723210722Clb=-7.1m/s t=-53.5C h=34.2% p=238.3hPa 403.000 MHz Type=RS41-SGP ser=U3554711 Radiosonde
KF0FCVU35547112022-12-06 00:55:1139.3886-104.6677621710924Clb=-7.4m/s t=-53.9C h=19.7% p=230.9hPa 403.000 MHz Type=RS41-SGP ser=U3554711 Radiosonde
KF0FCVU35547112022-12-06 00:54:2539.3845-104.6887521711185Clb=-5.9m/s t=-55.3C h=19.8% p=221.7hPa 403.000 MHz Type=RS41-SGP ser=U3554711 Radiosonde
KF0FCVU35547112022-12-06 00:53:3439.3798-104.7097321311403Clb=-9.4m/s t=-56.3C h=12.6% p=214.3hPa 403.000 MHz Type=RS41-SGP ser=U3554711 Radiosonde
KF0FCVU35547112022-12-06 00:52:4639.3757-104.7297720911636Clb=-8.7m/s t=-57.0C h=8.7% p=206.5hPa 403.000 MHz Type=RS41-SGP ser=U3554711 Radiosonde
KF0FCVU35547112022-12-06 00:51:5739.3726-104.7497820411887Clb=-6.2m/s t=-57.3C h=7.7% p=198.6hPa 403.000 MHz Type=RS41-SGP ser=U3554711 Radiosonde
KF0FCVU35547112022-12-06 00:51:2639.3695-104.7698019612104Clb=-8.4m/s t=-57.9C h=7.9% p=191.9hPa 403.000 MHz Type=RS41-SGP ser=U3554711 Radiosonde
KF0FCVU35547112022-12-06 00:50:5539.3666-104.7887819612339Clb=-6.4m/s t=-59.8C h=8.7% p=184.8hPa 403.000 MHz Type=RS41-SGP ser=U3554711 Radiosonde
KF0FCVU35547112022-12-06 00:50:2539.3636-104.8087819412600Clb=-8.6m/s t=-61.3C h=8.2% p=177.4hPa 403.000 MHz Type=RS41-SGP ser=U3554711 Radiosonde
KF0FCVU35547112022-12-06 00:49:5339.3604-104.8277920012819Clb=-5.6m/s t=-61.6C h=7.3% p=171.1hPa 403.000 MHz Type=RS41-SGP ser=U3554711 Radiosonde
KF0FCVU35547112022-12-06 00:49:3639.333-104.9677918014283Clb=-6.9m/s t=-63.3C h=4.2% p=135.4hPa 403.000 MHz Type=RS41-SGP ser=U3554711 Radiosonde
KF0FCVU35547112022-12-06 00:49:3439.3309-104.9857916914447Clb=-6.1m/s t=-62.9C h=3.9% p=131.8hPa 403.000 MHz Type=RS41-SGP ser=U3554711 Radiosonde
KF0FCVU35547112022-12-06 00:49:3239.3284-105.0017715714683Clb=-4.3m/s t=-63.8C h=3.9% p=126.8hPa 403.000 MHz Type=RS41-SGP ser=U3554711 Radiosonde
KF0FCVU35547112022-12-06 00:49:3039.3254-105.0167416114815Clb=-5.2m/s t=-63.2C h=3.7% p=124.1hPa 403.000 MHz Type=RS41-SGP ser=U3554711 Radiosonde
KF0FCVU35547112022-12-06 00:49:2839.3217-105.0317316114979Clb=-5.1m/s t=-63.9C h=3.7% p=120.9hPa 403.000 MHz Type=RS41-SGP ser=U3554711 Radiosonde
KF0FCVU35547112022-12-06 00:49:0839.3181-105.0477416115148Clb=-4.0m/s t=-64.8C h=3.7% p=117.6hPa 403.000 MHz Type=RS41-SGP ser=U3554711 Radiosonde
KF0FCVU35547112022-12-06 00:48:1539.3148-105.0637716115284Clb=-6.6m/s t=-65.8C h=3.9% p=115.1hPa 403.000 MHz Type=RS41-SGP ser=U3554711 Radiosonde
KF0FCVU35547112022-12-06 00:47:1739.312-105.0797815615475Clb=-4.9m/s t=-64.9C h=3.7% p=111.5hPa 403.000 MHz Type=RS41-SGP ser=U3554711 Radiosonde
KF0FCVU35547112022-12-06 00:46:2339.3098-105.0937814815630Clb=-5.8m/s t=-65.7C h=3.9% p=108.7hPa 403.000 MHz Type=RS41-SGP ser=U3554711 Radiosonde
KF0FCVU35547112022-12-06 00:45:2639.307-105.1087615415810Clb=-6.4m/s t=-66.1C h=4.2% p=105.5hPa 403.000 MHz Type=RS41-SGP ser=U3554711 Radiosonde
KF0FCVU35547112022-12-06 00:44:3339.3036-105.1237215616009Clb=-7.2m/s t=-65.3C h=3.9% p=102.1hPa 403.000 MHz Type=RS41-SGP ser=U3554711 Radiosonde
KF0FCVU35547112022-12-06 00:43:3839.3-105.1397615716252Clb=-10.2m/s t=-65.7C h=3.8% p=98.1hPa 403.000 MHz Type=RS41-SGP ser=U3554711 Radiosonde
KF0FCVU35547112022-12-06 00:42:4139.2975-105.1537715016595Clb=-11.3m/s t=-65.0C h=3.3% p=92.7hPa 403.000 MHz Type=RS41-SGP ser=U3554711 Radiosonde
KF0FCVU35547112022-12-06 00:41:4039.295-105.1677712816961Clb=-12.8m/s t=-63.1C h=2.7% p=87.4hPa 403.000 MHz Type=RS41-SGP ser=U3554711 Radiosonde
KF0FCVU35547112022-12-06 00:40:4139.2935-105.1798711917329Clb=-10.9m/s t=-63.9C h=2.6% p=82.2hPa 403.000 MHz Type=RS41-SGP ser=U3554711 Radiosonde
KF0FCVU35547112022-12-06 00:39:4439.2928-105.1918611717619Clb=-9.2m/s t=-65.1C h=2.6% p=78.3hPa 403.000 MHz Type=RS41-SGP ser=U3554711 Radiosonde
KF0FCVU35547112022-12-06 00:38:4939.2925-105.201859617917Clb=-8.3m/s t=-64.2C h=2.4% p=74.6hPa 403.000 MHz Type=RS41-SGP ser=U3554711 Radiosonde
KF0FCVU35547112022-12-06 00:37:5239.2913-105.21758318199Clb=-8.0m/s t=-59.7C h=1.8% p=71.3hPa 403.000 MHz Type=RS41-SGP ser=U3554711 Radiosonde
KF0FCVU35547112022-12-06 00:36:4739.2888-105.219639318424Clb=-9.9m/s t=-59.6C h=1.9% p=68.7hPa 403.000 MHz Type=RS41-SGP ser=U3554711 Radiosonde
KF0FCVU35547112022-12-06 00:35:5439.2877-105.228888718706Clb=-8.7m/s t=-59.6C h=1.8% p=65.7hPa 403.000 MHz Type=RS41-SGP ser=U3554711 Radiosonde
KF0FCVU35547112022-12-06 00:35:2839.288-105.237989318968Clb=-10.0m/s t=-61.9C h=2.1% p=62.9hPa 403.000 MHz Type=RS41-SGP ser=U3554711 Radiosonde
KF0FCVU35547112022-12-06 00:34:5239.2897-105.2441175619329Clb=-10.1m/s t=-62.3C h=2.2% p=59.4hPa 403.000 MHz Type=RS41-SGP ser=U3554711 Radiosonde
KF0FCVU35547112022-12-06 00:34:2439.291-105.2481015219714Clb=-9.2m/s t=-63.4C h=2.4% p=55.8hPa 403.000 MHz Type=RS41-SGP ser=U3554711 Radiosonde
KF0FCVU35547112022-12-06 00:33:5039.2917-105.2531083520150Clb=-11.2m/s t=-63.5C h=2.4% p=52.0hPa 403.000 MHz Type=RS41-SGP ser=U3554711 Radiosonde
KF0FCVU35547112022-12-06 00:33:1939.2914-105.256462420618Clb=-15.7m/s t=-65.9C h=2.7% p=48.3hPa 403.000 MHz Type=RS41-SGP ser=U3554711 Radiosonde
KF0FCVU35547112022-12-06 00:33:0139.295-105.33859618800Clb=3.8m/s t=-60.1C h=1.6% p=64.5hPa 403.000 MHz Type=RS41-SGP ser=U3554711 Radiosonde
KF0FCVU35547112022-12-06 00:32:0239.295-105.34879418699Clb=5.0m/s t=-59.5C h=1.6% p=65.6hPa 403.000 MHz Type=RS41-SGP ser=U3554711 Radiosonde
KF0FCVU35547112022-12-06 00:31:0339.2942-105.358210418586Clb=3.5m/s t=-58.5C h=1.6% p=66.8hPa 403.000 MHz Type=RS41-SGP ser=U3554711 Radiosonde
KF0FCVU35547112022-12-06 00:30:0439.2928-105.367810418462Clb=2.9m/s t=-57.6C h=1.5% p=68.1hPa 403.000 MHz Type=RS41-SGP ser=U3554711 Radiosonde
KF0FCVU35547112022-12-06 00:29:0639.2908-105.37729818348Clb=4.1m/s t=-59.4C h=1.8% p=69.4hPa 403.000 MHz Type=RS41-SGP ser=U3554711 Radiosonde
KF0FCVU35547112022-12-06 00:28:0939.2879-105.387210618227Clb=2.9m/s t=-59.8C h=2.2% p=70.7hPa 403.000 MHz Type=RS41-SGP ser=U3554711 Radiosonde
KF0FCVU35547112022-12-06 00:27:0839.2855-105.389739418144Clb=1.4m/s t=-63.8C h=3.2% p=71.7hPa 403.000 MHz Type=RS41-SGP ser=U3554711 Radiosonde
KF0FCVU35547112022-12-06 00:26:0939.2841-105.48912618016Clb=3.8m/s t=-66.5C h=3.7% p=73.3hPa 403.000 MHz Type=RS41-SGP ser=U3554711 Radiosonde
KF0FCVU35547112022-12-06 00:25:0939.2837-105.4128912417913Clb=4.0m/s t=-67.4C h=4.0% p=74.6hPa 403.000 MHz Type=RS41-SGP ser=U3554711 Radiosonde
KF0FCVU35547112022-12-06 00:24:0939.2832-105.4248712217781Clb=5.0m/s t=-67.2C h=4.1% p=76.2hPa 403.000 MHz Type=RS41-SGP ser=U3554711 Radiosonde
KF0FCVU35547112022-12-06 00:23:1239.2828-105.4368712417625Clb=5.5m/s t=-66.7C h=4.1% p=78.3hPa 403.000 MHz Type=RS41-SGP ser=U3554711 Radiosonde
KF0FCVU35547112022-12-06 00:22:1239.2824-105.4498712617460Clb=5.1m/s t=-66.6C h=4.3% p=80.5hPa 403.000 MHz Type=RS41-SGP ser=U3554711 Radiosonde
KF0FCVU35547112022-12-06 00:21:1539.2817-105.4618512617293Clb=5.3m/s t=-66.1C h=4.2% p=82.7hPa 403.000 MHz Type=RS41-SGP ser=U3554711 Radiosonde
KF0FCVU35547112022-12-06 00:20:1539.2812-105.4738512617139Clb=5.3m/s t=-68.1C h=4.9% p=84.9hPa 403.000 MHz Type=RS41-SGP ser=U3554711 Radiosonde
KF0FCVU35547112022-12-06 00:19:1739.2799-105.4878413516994Clb=3.8m/s t=-68.3C h=5.0% p=87.0hPa 403.000 MHz Type=RS41-SGP ser=U3554711 Radiosonde
KF0FCVU35547112022-12-06 00:18:2139.2787-105.58513516856Clb=4.9m/s t=-67.4C h=5.0% p=89.0hPa 403.000 MHz Type=RS41-SGP ser=U3554711 Radiosonde
KF0FCVU35547112022-12-06 00:17:2239.2781-105.5149013716712Clb=5.3m/s t=-67.2C h=4.9% p=91.1hPa 403.000 MHz Type=RS41-SGP ser=U3554711 Radiosonde
KF0FCVU35547112022-12-06 00:16:2339.277-105.5298014616559Clb=5.8m/s t=-67.4C h=4.9% p=93.4hPa 403.000 MHz Type=RS41-SGP ser=U3554711 Radiosonde
KF0FCVU35547112022-12-06 00:15:4439.275-105.5447615016392Clb=5.6m/s t=-67.9C h=5.0% p=96.0hPa 403.000 MHz Type=RS41-SGP ser=U3554711 Radiosonde
KF0FCVU35547112022-12-06 00:15:1539.272-105.5577414616244Clb=3.7m/s t=-67.0C h=4.4% p=98.3hPa 403.000 MHz Type=RS41-SGP ser=U3554711 Radiosonde
KF0FCVU35547112022-12-06 00:14:4439.2684-105.5727515016073Clb=5.7m/s t=-67.3C h=4.1% p=101.1hPa 403.000 MHz Type=RS41-SGP ser=U3554711 Radiosonde
KF0FCVU35547112022-12-06 00:14:3539.2656-105.5867515015914Clb=4.7m/s t=-67.1C h=-1.0% p=103.8hPa 403.000 MHz Type=RS41-SGP ser=U3554711 Radiosonde
KF0FCVU35547112022-12-06 00:14:0139.2621-105.67114115768Clb=4.1m/s t=-66.7C h=-1.0% p=106.3hPa 403.000 MHz Type=RS41-SGP ser=U3554711 Radiosonde
KF0FCVU35547112022-12-06 00:13:5239.2589-105.6157414815630Clb=3.9m/s t=-65.7C h=-1.0% p=-1.0hPa 403.000 MHz Type=RS41-SGP ser=U3554711 Radiosonde
KF0FCVU35547112022-12-06 00:13:4439.2561-105.6297614815510Clb=3.3m/s t=-273.0C h=-1.0% p=-1.0hPa 403.000 MHz Type=RS41 ser=U3554711 Radiosonde
KF0FCVU35547112022-12-06 00:13:3939.2513-105.6526916515332Clb=3.9m/s t=-273.0C h=-1.0% p=-1.0hPa 403.000 MHz Type=RS41 ser=U3554711 Radiosonde